Terminal Aerodrome Forecast
Issued by NWS

Home | Current Version | Previous Version | Graphics & Text | Print | Product List | Glossary On
Versions: 1 2 3 4 5 6 7 8 9 10 11 12 13 14
272
FTUS43 KICT 262341
TAFRSL
TAF
KRSL 262341Z 2700/2724 09008KT P6SM SKC
     FM270600 11009KT P6SM VCTS SCT070CB BKN250
     FM270900 03011KT P6SM VCTS SCT070CB BKN250
     FM271800 01014G20KT P6SM BKN025=

USA.gov is the U.S. government's official web portal to all federal, state and local government web resources and services.